sensor_id;sensor_type;location;lat;lon;timestamp;temperature;humidity
8591;DHT22;4333;48.322;14.340;2023-10-09T00:01:06;12.00;99.90
8591;DHT22;4333;48.322;14.340;2023-10-09T00:03:42;11.90;99.90
8591;DHT22;4333;48.322;14.340;2023-10-09T00:06:10;12.00;99.90
8591;DHT22;4333;48.322;14.340;2023-10-09T00:08:39;12.10;99.90
8591;DHT22;4333;48.322;14.340;2023-10-09T00:11:10;12.00;99.90
8591;DHT22;4333;48.322;14.340;2023-10-09T00:13:47;12.10;99.90
8591;DHT22;4333;48.322;14.340;2023-10-09T00:16:19;12.00;99.90
8591;DHT22;4333;48.322;14.340;2023-10-09T00:19:06;12.10;99.90
8591;DHT22;4333;48.322;14.340;2023-10-09T00:21:52;12.00;99.90
8591;DHT22;4333;48.322;14.340;2023-10-09T00:24:21;12.10;99.90
8591;DHT22;4333;48.322;14.340;2023-10-09T00:26:53;12.10;99.90
8591;DHT22;4333;48.322;14.340;2023-10-09T00:29:39;12.10;99.90
8591;DHT22;4333;48.322;14.340;2023-10-09T00:32:14;12.10;99.90
8591;DHT22;4333;48.322;14.340;2023-10-09T00:34:51;12.10;99.90
8591;DHT22;4333;48.322;14.340;2023-10-09T00:37:17;12.00;99.90
8591;DHT22;4333;48.322;14.340;2023-10-09T00:39:48;12.00;99.90
8591;DHT22;4333;48.322;14.340;2023-10-09T00:42:23;12.00;99.90
8591;DHT22;4333;48.322;14.340;2023-10-09T00:45:01;11.90;99.90
8591;DHT22;4333;48.322;14.340;2023-10-09T00:47:31;11.90;99.90
8591;DHT22;4333;48.322;14.340;2023-10-09T00:50:04;11.90;99.90
8591;DHT22;4333;48.322;14.340;2023-10-09T00:52:54;11.90;99.90
8591;DHT22;4333;48.322;14.340;2023-10-09T00:55:32;11.90;99.90
8591;DHT22;4333;48.322;14.340;2023-10-09T00:58:23;12.00;99.90
8591;DHT22;4333;48.322;14.340;2023-10-09T01:00:57;11.90;99.90
8591;DHT22;4333;48.322;14.340;2023-10-09T01:03:27;12.00;99.90
8591;DHT22;4333;48.322;14.340;2023-10-09T01:06:00;11.90;99.90
8591;DHT22;4333;48.322;14.340;2023-10-09T01:08:41;11.90;99.90
8591;DHT22;4333;48.322;14.340;2023-10-09T01:13:37;11.90;99.90
8591;DHT22;4333;48.322;14.340;2023-10-09T01:16:22;12.00;99.90
8591;DHT22;4333;48.322;14.340;2023-10-09T01:21:16;11.90;99.90
8591;DHT22;4333;48.322;14.340;2023-10-09T01:23:43;11.90;99.90
8591;DHT22;4333;48.322;14.340;2023-10-09T01:26:32;11.90;99.90
8591;DHT22;4333;48.322;14.340;2023-10-09T01:29:21;11.90;99.90
8591;DHT22;4333;48.322;14.340;2023-10-09T01:31:52;11.80;99.90
8591;DHT22;4333;48.322;14.340;2023-10-09T01:34:22;11.70;99.90
8591;DHT22;4333;48.322;14.340;2023-10-09T01:37:07;11.70;99.90
8591;DHT22;4333;48.322;14.340;2023-10-09T01:39:40;11.70;99.90
8591;DHT22;4333;48.322;14.340;2023-10-09T01:42:09;11.60;99.90
8591;DHT22;4333;48.322;14.340;2023-10-09T01:44:35;11.60;99.90
8591;DHT22;4333;48.322;14.340;2023-10-09T01:47:08;11.60;99.90
8591;DHT22;4333;48.322;14.340;2023-10-09T01:49:34;11.60;99.90
8591;DHT22;4333;48.322;14.340;2023-10-09T01:52:03;11.60;99.90
8591;DHT22;4333;48.322;14.340;2023-10-09T01:54:39;11.60;99.90
8591;DHT22;4333;48.322;14.340;2023-10-09T01:57:12;11.60;99.90
8591;DHT22;4333;48.322;14.340;2023-10-09T01:59:42;11.60;99.90
8591;DHT22;4333;48.322;14.340;2023-10-09T02:02:13;11.70;99.90
8591;DHT22;4333;48.322;14.340;2023-10-09T02:04:53;11.60;99.90
8591;DHT22;4333;48.322;14.340;2023-10-09T02:07:20;11.50;99.90
8591;DHT22;4333;48.322;14.340;2023-10-09T02:09:57;11.40;99.90
8591;DHT22;4333;48.322;14.340;2023-10-09T02:12:25;11.20;99.90
8591;DHT22;4333;48.322;14.340;2023-10-09T02:14:54;11.10;99.90
8591;DHT22;4333;48.322;14.340;2023-10-09T02:17:21;11.00;99.90
8591;DHT22;4333;48.322;14.340;2023-10-09T02:19:54;10.90;99.90
8591;DHT22;4333;48.322;14.340;2023-10-09T02:22:19;10.80;99.90
8591;DHT22;4333;48.322;14.340;2023-10-09T02:24:45;10.80;99.90
8591;DHT22;4333;48.322;14.340;2023-10-09T02:27:15;10.80;99.90
8591;DHT22;4333;48.322;14.340;2023-10-09T02:29:59;10.60;99.90
8591;DHT22;4333;48.322;14.340;2023-10-09T02:32:34;10.60;99.90
8591;DHT22;4333;48.322;14.340;2023-10-09T02:35:01;10.60;99.90
8591;DHT22;4333;48.322;14.340;2023-10-09T02:37:35;10.60;99.90
8591;DHT22;4333;48.322;14.340;2023-10-09T02:40:04;10.60;99.90
8591;DHT22;4333;48.322;14.340;2023-10-09T02:42:34;10.50;99.90
8591;DHT22;4333;48.322;14.340;2023-10-09T02:45:00;10.40;99.90
8591;DHT22;4333;48.322;14.340;2023-10-09T02:47:26;10.40;99.90
8591;DHT22;4333;48.322;14.340;2023-10-09T02:50:06;10.40;99.90
8591;DHT22;4333;48.322;14.340;2023-10-09T02:52:47;10.40;99.90
8591;DHT22;4333;48.322;14.340;2023-10-09T02:55:18;10.50;99.90
8591;DHT22;4333;48.322;14.340;2023-10-09T02:57:55;10.50;99.90
8591;DHT22;4333;48.322;14.340;2023-10-09T03:00:42;10.60;99.90
8591;DHT22;4333;48.322;14.340;2023-10-09T03:03:09;10.60;99.90
8591;DHT22;4333;48.322;14.340;2023-10-09T03:05:37;10.60;99.90
8591;DHT22;4333;48.322;14.340;2023-10-09T03:08:10;10.60;99.90
8591;DHT22;4333;48.322;14.340;2023-10-09T03:10:38;10.60;99.90
8591;DHT22;4333;48.322;14.340;2023-10-09T03:13:04;10.60;99.90
8591;DHT22;4333;48.322;14.340;2023-10-09T03:15:33;10.50;99.90
8591;DHT22;4333;48.322;14.340;2023-10-09T03:18:02;10.50;99.90
8591;DHT22;4333;48.322;14.340;2023-10-09T03:20:32;10.60;99.90
8591;DHT22;4333;48.322;14.340;2023-10-09T03:23:00;10.60;99.90
8591;DHT22;4333;48.322;14.340;2023-10-09T03:25:27;10.70;99.90
8591;DHT22;4333;48.322;14.340;2023-10-09T03:27:53;10.70;99.90
8591;DHT22;4333;48.322;14.340;2023-10-09T03:30:24;10.70;99.90
8591;DHT22;4333;48.322;14.340;2023-10-09T03:32:53;10.80;99.90
8591;DHT22;4333;48.322;14.340;2023-10-09T03:35:20;10.70;99.90
8591;DHT22;4333;48.322;14.340;2023-10-09T03:37:59;10.70;99.90
8591;DHT22;4333;48.322;14.340;2023-10-09T03:40:41;10.70;99.90
8591;DHT22;4333;48.322;14.340;2023-10-09T03:43:11;10.60;99.90
8591;DHT22;4333;48.322;14.340;2023-10-09T03:45:37;10.60;99.90
8591;DHT22;4333;48.322;14.340;2023-10-09T03:48:05;10.60;99.90
8591;DHT22;4333;48.322;14.340;2023-10-09T03:50:41;10.60;99.90
8591;DHT22;4333;48.322;14.340;2023-10-09T03:53:09;10.60;99.90
8591;DHT22;4333;48.322;14.340;2023-10-09T03:55:39;10.60;99.90
8591;DHT22;4333;48.322;14.340;2023-10-09T03:58:08;10.60;99.90
8591;DHT22;4333;48.322;14.340;2023-10-09T04:00:37;10.60;99.90
8591;DHT22;4333;48.322;14.340;2023-10-09T04:03:14;10.60;99.90
8591;DHT22;4333;48.322;14.340;2023-10-09T04:05:41;10.60;99.90
8591;DHT22;4333;48.322;14.340;2023-10-09T04:08:11;10.50;99.90
8591;DHT22;4333;48.322;14.340;2023-10-09T04:10:47;10.50;99.90
8591;DHT22;4333;48.322;14.340;2023-10-09T04:13:19;10.50;99.90
8591;DHT22;4333;48.322;14.340;2023-10-09T04:15:51;10.50;99.90
8591;DHT22;4333;48.322;14.340;2023-10-09T04:18:20;10.50;99.90
8591;DHT22;4333;48.322;14.340;2023-10-09T04:20:46;10.60;99.90
8591;DHT22;4333;48.322;14.340;2023-10-09T04:23:33;10.50;99.90
8591;DHT22;4333;48.322;14.340;2023-10-09T04:26:21;10.50;99.90
8591;DHT22;4333;48.322;14.340;2023-10-09T04:28:50;10.50;99.90
8591;DHT22;4333;48.322;14.340;2023-10-09T04:31:19;10.60;99.90
8591;DHT22;4333;48.322;14.340;2023-10-09T04:33:51;10.60;99.90
8591;DHT22;4333;48.322;14.340;2023-10-09T04:36:40;10.60;99.90
8591;DHT22;4333;48.322;14.340;2023-10-09T04:39:12;10.60;99.90
8591;DHT22;4333;48.322;14.340;2023-10-09T04:41:37;10.60;99.90
8591;DHT22;4333;48.322;14.340;2023-10-09T04:44:11;10.60;99.90
8591;DHT22;4333;48.322;14.340;2023-10-09T04:46:49;10.50;99.90
8591;DHT22;4333;48.322;14.340;2023-10-09T04:49:44;10.50;99.90
8591;DHT22;4333;48.322;14.340;2023-10-09T04:52:16;10.50;99.90
8591;DHT22;4333;48.322;14.340;2023-10-09T04:54:45;10.50;99.90
8591;DHT22;4333;48.322;14.340;2023-10-09T04:57:29;10.50;99.90
8591;DHT22;4333;48.322;14.340;2023-10-09T05:00:06;10.50;99.90
8591;DHT22;4333;48.322;14.340;2023-10-09T05:02:54;10.50;99.90
8591;DHT22;4333;48.322;14.340;2023-10-09T05:05:31;10.50;99.90
8591;DHT22;4333;48.322;14.340;2023-10-09T05:08:03;10.50;99.90
8591;DHT22;4333;48.322;14.340;2023-10-09T05:13:31;10.30;99.90
8591;DHT22;4333;48.322;14.340;2023-10-09T05:16:13;10.20;99.90
8591;DHT22;4333;48.322;14.340;2023-10-09T05:18:47;10.10;99.90
8591;DHT22;4333;48.322;14.340;2023-10-09T05:21:23;10.20;99.90
8591;DHT22;4333;48.322;14.340;2023-10-09T05:23:58;10.10;99.90
8591;DHT22;4333;48.322;14.340;2023-10-09T05:26:49;10.10;99.90
8591;DHT22;4333;48.322;14.340;2023-10-09T05:31:54;10.20;99.90
8591;DHT22;4333;48.322;14.340;2023-10-09T05:34:28;10.20;99.90
8591;DHT22;4333;48.322;14.340;2023-10-09T05:37:04;10.20;99.90
8591;DHT22;4333;48.322;14.340;2023-10-09T05:39:49;10.20;99.90
8591;DHT22;4333;48.322;14.340;2023-10-09T05:42:44;10.30;99.90
8591;DHT22;4333;48.322;14.340;2023-10-09T05:45:23;10.40;99.90
8591;DHT22;4333;48.322;14.340;2023-10-09T05:48:09;10.50;99.90
8591;DHT22;4333;48.322;14.340;2023-10-09T05:50:55;10.40;99.90
8591;DHT22;4333;48.322;14.340;2023-10-09T05:53:38;10.50;99.90
8591;DHT22;4333;48.322;14.340;2023-10-09T05:56:13;10.50;99.90
8591;DHT22;4333;48.322;14.340;2023-10-09T05:59:08;10.50;99.90
8591;DHT22;4333;48.322;14.340;2023-10-09T06:01:52;10.60;99.90
8591;DHT22;4333;48.322;14.340;2023-10-09T06:04:32;10.70;99.90
8591;DHT22;4333;48.322;14.340;2023-10-09T06:07:20;10.70;99.90
8591;DHT22;4333;48.322;14.340;2023-10-09T06:09:50;10.90;99.90
8591;DHT22;4333;48.322;14.340;2023-10-09T06:12:18;11.00;99.90
8591;DHT22;4333;48.322;14.340;2023-10-09T06:15:03;11.10;99.90
8591;DHT22;4333;48.322;14.340;2023-10-09T06:17:56;11.20;99.90
8591;DHT22;4333;48.322;14.340;2023-10-09T06:20:42;11.20;99.90
8591;DHT22;4333;48.322;14.340;2023-10-09T06:23:26;11.20;99.90
8591;DHT22;4333;48.322;14.340;2023-10-09T06:26:11;11.30;99.90
8591;DHT22;4333;48.322;14.340;2023-10-09T06:28:50;11.30;99.90
8591;DHT22;4333;48.322;14.340;2023-10-09T06:31:35;11.50;99.90
8591;DHT22;4333;48.322;14.340;2023-10-09T06:34:19;11.70;99.90
8591;DHT22;4333;48.322;14.340;2023-10-09T06:36:50;11.90;99.90
8591;DHT22;4333;48.322;14.340;2023-10-09T06:39:19;11.90;99.90
8591;DHT22;4333;48.322;14.340;2023-10-09T06:42:03;12.00;99.90
8591;DHT22;4333;48.322;14.340;2023-10-09T06:44:58;12.20;99.90
8591;DHT22;4333;48.322;14.340;2023-10-09T06:47:24;12.40;99.90
8591;DHT22;4333;48.322;14.340;2023-10-09T06:49:50;12.60;99.90
8591;DHT22;4333;48.322;14.340;2023-10-09T06:52:34;12.80;99.90
8591;DHT22;4333;48.322;14.340;2023-10-09T06:55:19;13.30;99.90
8591;DHT22;4333;48.322;14.340;2023-10-09T06:57:46;13.60;99.90
8591;DHT22;4333;48.322;14.340;2023-10-09T07:00:15;14.10;99.90
8591;DHT22;4333;48.322;14.340;2023-10-09T07:03:01;14.70;99.90
8591;DHT22;4333;48.322;14.340;2023-10-09T07:05:41;15.30;99.90
8591;DHT22;4333;48.322;14.340;2023-10-09T07:08:25;16.00;99.90
8591;DHT22;4333;48.322;14.340;2023-10-09T07:11:00;16.90;99.90
8591;DHT22;4333;48.322;14.340;2023-10-09T07:13:46;17.90;81.00
8591;DHT22;4333;48.322;14.340;2023-10-09T07:16:20;18.40;57.50
8591;DHT22;4333;48.322;14.340;2023-10-09T07:19:04;18.60;35.30
8591;DHT22;4333;48.322;14.340;2023-10-09T07:21:51;19.70;34.20
8591;DHT22;4333;48.322;14.340;2023-10-09T07:24:20;20.60;19.90
8591;DHT22;4333;48.322;14.340;2023-10-09T07:26:50;20.80;6.20
8591;DHT22;4333;48.322;14.340;2023-10-09T07:29:20;19.40;5.70
8591;DHT22;4333;48.322;14.340;2023-10-09T07:31:53;18.10;19.00
8591;DHT22;4333;48.322;14.340;2023-10-09T07:34:37;17.50;28.20
8591;DHT22;4333;48.322;14.340;2023-10-09T07:37:26;17.30;40.80
8591;DHT22;4333;48.322;14.340;2023-10-09T07:40:03;16.90;43.90
8591;DHT22;4333;48.322;14.340;2023-10-09T07:42:35;16.40;45.00
8591;DHT22;4333;48.322;14.340;2023-10-09T07:45:09;15.90;52.50
8591;DHT22;4333;48.322;14.340;2023-10-09T07:48:00;15.70;56.40
8591;DHT22;4333;48.322;14.340;2023-10-09T07:50:34;15.40;60.50
8591;DHT22;4333;48.322;14.340;2023-10-09T07:53:20;14.90;70.00
8591;DHT22;4333;48.322;14.340;2023-10-09T07:55:55;14.50;84.90
8591;DHT22;4333;48.322;14.340;2023-10-09T07:58:25;14.60;95.30
8591;DHT22;4333;48.322;14.340;2023-10-09T08:01:00;14.80;99.10
8591;DHT22;4333;48.322;14.340;2023-10-09T08:03:33;14.80;93.00
8591;DHT22;4333;48.322;14.340;2023-10-09T08:06:02;14.90;92.50
8591;DHT22;4333;48.322;14.340;2023-10-09T08:09:05;14.90;95.40
8591;DHT22;4333;48.322;14.340;2023-10-09T08:11:45;14.90;95.20
8591;DHT22;4333;48.322;14.340;2023-10-09T08:14:16;15.00;96.50
8591;DHT22;4333;48.322;14.340;2023-10-09T08:17:05;15.10;99.50
8591;DHT22;4333;48.322;14.340;2023-10-09T08:19:41;15.20;99.90
8591;DHT22;4333;48.322;14.340;2023-10-09T08:22:37;15.40;99.90
8591;DHT22;4333;48.322;14.340;2023-10-09T08:25:12;15.60;96.80
8591;DHT22;4333;48.322;14.340;2023-10-09T08:27:58;15.60;94.00
8591;DHT22;4333;48.322;14.340;2023-10-09T08:30:44;15.40;96.80
8591;DHT22;4333;48.322;14.340;2023-10-09T08:33:19;15.60;99.80
8591;DHT22;4333;48.322;14.340;2023-10-09T08:35:55;15.70;98.90
8591;DHT22;4333;48.322;14.340;2023-10-09T08:38:27;15.80;96.00
8591;DHT22;4333;48.322;14.340;2023-10-09T08:41:06;15.80;96.30
8591;DHT22;4333;48.322;14.340;2023-10-09T08:43:43;15.90;96.30
8591;DHT22;4333;48.322;14.340;2023-10-09T08:46:17;16.00;97.40
8591;DHT22;4333;48.322;14.340;2023-10-09T08:48:45;16.20;98.50
8591;DHT22;4333;48.322;14.340;2023-10-09T08:51:11;16.50;96.70
8591;DHT22;4333;48.322;14.340;2023-10-09T08:53:39;16.80;95.40
8591;DHT22;4333;48.322;14.340;2023-10-09T08:56:15;17.10;91.70
8591;DHT22;4333;48.322;14.340;2023-10-09T08:58:48;17.50;85.50
8591;DHT22;4333;48.322;14.340;2023-10-09T09:01:18;17.70;81.30
8591;DHT22;4333;48.322;14.340;2023-10-09T09:03:51;17.90;79.90
8591;DHT22;4333;48.322;14.340;2023-10-09T09:06:18;17.60;77.50
8591;DHT22;4333;48.322;14.340;2023-10-09T09:08:45;17.10;88.00
8591;DHT22;4333;48.322;14.340;2023-10-09T09:11:13;16.90;90.70
8591;DHT22;4333;48.322;14.340;2023-10-09T09:16:31;16.50;99.70
8591;DHT22;4333;48.322;14.340;2023-10-09T09:19:00;16.40;99.90
8591;DHT22;4333;48.322;14.340;2023-10-09T09:21:27;16.40;99.90
8591;DHT22;4333;48.322;14.340;2023-10-09T09:23:58;16.30;99.90
8591;DHT22;4333;48.322;14.340;2023-10-09T09:26:37;16.30;99.90
8591;DHT22;4333;48.322;14.340;2023-10-09T09:29:06;16.10;99.90
8591;DHT22;4333;48.322;14.340;2023-10-09T09:31:34;16.10;99.90
8591;DHT22;4333;48.322;14.340;2023-10-09T09:34:07;16.10;99.90
8591;DHT22;4333;48.322;14.340;2023-10-09T09:36:53;16.20;99.90
8591;DHT22;4333;48.322;14.340;2023-10-09T09:39:25;16.20;99.90
8591;DHT22;4333;48.322;14.340;2023-10-09T09:41:56;16.20;99.90
8591;DHT22;4333;48.322;14.340;2023-10-09T09:44:23;16.40;99.90
8591;DHT22;4333;48.322;14.340;2023-10-09T09:46:57;16.40;99.90
8591;DHT22;4333;48.322;14.340;2023-10-09T09:49:27;16.40;99.90
8591;DHT22;4333;48.322;14.340;2023-10-09T09:52:00;16.50;99.90
8591;DHT22;4333;48.322;14.340;2023-10-09T09:54:29;16.60;99.90
8591;DHT22;4333;48.322;14.340;2023-10-09T09:57:00;16.60;99.90
8591;DHT22;4333;48.322;14.340;2023-10-09T09:59:39;16.60;99.90
8591;DHT22;4333;48.322;14.340;2023-10-09T10:02:28;16.70;99.90
8591;DHT22;4333;48.322;14.340;2023-10-09T10:05:04;16.70;99.90
8591;DHT22;4333;48.322;14.340;2023-10-09T10:07:33;16.80;99.90
8591;DHT22;4333;48.322;14.340;2023-10-09T10:11:00;16.90;99.90
8591;DHT22;4333;48.322;14.340;2023-10-09T10:13:56;17.00;99.90
8591;DHT22;4333;48.322;14.340;2023-10-09T10:16:29;17.10;99.90
8591;DHT22;4333;48.322;14.340;2023-10-09T10:19:02;17.10;99.90
8591;DHT22;4333;48.322;14.340;2023-10-09T10:21:37;17.10;99.90
8591;DHT22;4333;48.322;14.340;2023-10-09T10:35:20;17.70;99.90
8591;DHT22;4333;48.322;14.340;2023-10-09T10:37:58;17.90;99.90
8591;DHT22;4333;48.322;14.340;2023-10-09T10:40:35;17.90;99.90
8591;DHT22;4333;48.322;14.340;2023-10-09T10:43:18;17.90;99.90
8591;DHT22;4333;48.322;14.340;2023-10-09T10:46:18;18.00;99.90
8591;DHT22;4333;48.322;14.340;2023-10-09T10:49:00;18.10;99.90
8591;DHT22;4333;48.322;14.340;2023-10-09T10:51:38;18.10;99.90
8591;DHT22;4333;48.322;14.340;2023-10-09T10:54:08;18.10;99.90
8591;DHT22;4333;48.322;14.340;2023-10-09T10:56:52;18.20;99.90
8591;DHT22;4333;48.322;14.340;2023-10-09T10:59:19;18.10;99.90
8591;DHT22;4333;48.322;14.340;2023-10-09T11:01:54;18.20;99.90
8591;DHT22;4333;48.322;14.340;2023-10-09T11:04:29;18.30;99.90
8591;DHT22;4333;48.322;14.340;2023-10-09T11:06:58;18.50;99.90
8591;DHT22;4333;48.322;14.340;2023-10-09T11:12:51;18.60;95.50
8591;DHT22;4333;48.322;14.340;2023-10-09T11:15:17;18.60;95.10
8591;DHT22;4333;48.322;14.340;2023-10-09T11:18:04;18.50;95.40
8591;DHT22;4333;48.322;14.340;2023-10-09T11:20:35;18.60;96.00
8591;DHT22;4333;48.322;14.340;2023-10-09T11:23:02;18.70;96.10
8591;DHT22;4333;48.322;14.340;2023-10-09T11:25:45;18.70;93.90
8591;DHT22;4333;48.322;14.340;2023-10-09T11:28:23;18.70;93.70
8591;DHT22;4333;48.322;14.340;2023-10-09T11:33:50;18.80;93.90
8591;DHT22;4333;48.322;14.340;2023-10-09T11:36:21;18.90;93.80
8591;DHT22;4333;48.322;14.340;2023-10-09T11:39:00;19.00;92.10
8591;DHT22;4333;48.322;14.340;2023-10-09T11:41:45;19.10;90.40
8591;DHT22;4333;48.322;14.340;2023-10-09T11:44:15;19.10;88.20
8591;DHT22;4333;48.322;14.340;2023-10-09T11:46:58;19.20;90.90
8591;DHT22;4333;48.322;14.340;2023-10-09T11:49:56;19.30;89.90
8591;DHT22;4333;48.322;14.340;2023-10-09T11:52:33;19.50;88.90
8591;DHT22;4333;48.322;14.340;2023-10-09T11:55:11;19.40;82.90
8591;DHT22;4333;48.322;14.340;2023-10-09T11:57:42;19.50;83.90
8591;DHT22;4333;48.322;14.340;2023-10-09T12:00:08;19.40;83.70
8591;DHT22;4333;48.322;14.340;2023-10-09T12:02:56;19.50;84.20
8591;DHT22;4333;48.322;14.340;2023-10-09T12:05:22;19.50;78.00
8591;DHT22;4333;48.322;14.340;2023-10-09T12:07:49;19.60;74.20
8591;DHT22;4333;48.322;14.340;2023-10-09T12:10:21;19.60;70.10
8591;DHT22;4333;48.322;14.340;2023-10-09T12:12:52;19.50;65.30
8591;DHT22;4333;48.322;14.340;2023-10-09T12:15:22;19.50;62.80
8591;DHT22;4333;48.322;14.340;2023-10-09T12:17:48;19.50;61.80
8591;DHT22;4333;48.322;14.340;2023-10-09T12:20:15;19.40;61.90
8591;DHT22;4333;48.322;14.340;2023-10-09T12:22:58;19.40;62.80
8591;DHT22;4333;48.322;14.340;2023-10-09T12:25:27;19.30;61.50
8591;DHT22;4333;48.322;14.340;2023-10-09T12:27:57;19.30;60.00
8591;DHT22;4333;48.322;14.340;2023-10-09T12:30:25;19.20;61.80
8591;DHT22;4333;48.322;14.340;2023-10-09T12:32:55;19.20;62.00
8591;DHT22;4333;48.322;14.340;2023-10-09T12:35:25;19.10;65.10
8591;DHT22;4333;48.322;14.340;2023-10-09T12:37:57;19.10;63.10
8591;DHT22;4333;48.322;14.340;2023-10-09T12:40:25;19.10;63.70
8591;DHT22;4333;48.322;14.340;2023-10-09T12:42:57;19.00;68.60
8591;DHT22;4333;48.322;14.340;2023-10-09T12:45:26;18.90;67.90
8591;DHT22;4333;48.322;14.340;2023-10-09T12:47:56;18.90;75.70
8591;DHT22;4333;48.322;14.340;2023-10-09T12:50:27;18.80;84.30
8591;DHT22;4333;48.322;14.340;2023-10-09T12:52:59;18.80;86.20
8591;DHT22;4333;48.322;14.340;2023-10-09T12:55:35;18.70;82.40
8591;DHT22;4333;48.322;14.340;2023-10-09T12:58:01;18.70;82.80
8591;DHT22;4333;48.322;14.340;2023-10-09T13:00:43;18.60;87.20
8591;DHT22;4333;48.322;14.340;2023-10-09T13:03:12;18.50;87.70
8591;DHT22;4333;48.322;14.340;2023-10-09T13:05:48;18.50;88.40
8591;DHT22;4333;48.322;14.340;2023-10-09T13:08:25;18.40;93.90
8591;DHT22;4333;48.322;14.340;2023-10-09T13:11:01;18.40;99.90
8591;DHT22;4333;48.322;14.340;2023-10-09T13:13:30;18.30;99.90
8591;DHT22;4333;48.322;14.340;2023-10-09T13:16:07;18.30;99.90
8591;DHT22;4333;48.322;14.340;2023-10-09T13:18:32;18.10;99.90
8591;DHT22;4333;48.322;14.340;2023-10-09T13:20:58;18.00;99.90
8591;DHT22;4333;48.322;14.340;2023-10-09T13:23:29;18.00;99.90
8591;DHT22;4333;48.322;14.340;2023-10-09T13:26:06;18.00;99.90
8591;DHT22;4333;48.322;14.340;2023-10-09T13:28:54;17.90;99.90
8591;DHT22;4333;48.322;14.340;2023-10-09T13:31:21;17.80;99.90
8591;DHT22;4333;48.322;14.340;2023-10-09T13:33:49;17.80;99.90
8591;DHT22;4333;48.322;14.340;2023-10-09T13:36:22;17.80;99.90
8591;DHT22;4333;48.322;14.340;2023-10-09T13:39:01;17.80;99.90
8591;DHT22;4333;48.322;14.340;2023-10-09T13:41:58;17.80;99.90
8591;DHT22;4333;48.322;14.340;2023-10-09T13:44:27;17.80;99.90
8591;DHT22;4333;48.322;14.340;2023-10-09T13:46:57;17.90;99.90
8591;DHT22;4333;48.322;14.340;2023-10-09T13:49:23;18.00;99.90
8591;DHT22;4333;48.322;14.340;2023-10-09T13:51:51;18.00;99.90
8591;DHT22;4333;48.322;14.340;2023-10-09T13:54:22;18.10;99.90
8591;DHT22;4333;48.322;14.340;2023-10-09T13:57:08;18.10;99.90
8591;DHT22;4333;48.322;14.340;2023-10-09T13:59:36;18.10;99.50
8591;DHT22;4333;48.322;14.340;2023-10-09T14:02:03;18.10;99.90
8591;DHT22;4333;48.322;14.340;2023-10-09T14:04:35;18.20;99.90
8591;DHT22;4333;48.322;14.340;2023-10-09T14:07:04;18.20;99.90
8591;DHT22;4333;48.322;14.340;2023-10-09T14:09:36;18.10;99.90
8591;DHT22;4333;48.322;14.340;2023-10-09T14:12:10;18.10;99.20
8591;DHT22;4333;48.322;14.340;2023-10-09T14:14:45;18.20;96.30
8591;DHT22;4333;48.322;14.340;2023-10-09T14:17:15;18.10;99.90
8591;DHT22;4333;48.322;14.340;2023-10-09T14:19:47;18.20;97.00
8591;DHT22;4333;48.322;14.340;2023-10-09T14:22:23;18.10;97.20
8591;DHT22;4333;48.322;14.340;2023-10-09T14:24:55;18.20;98.20
8591;DHT22;4333;48.322;14.340;2023-10-09T14:27:22;18.30;99.90
8591;DHT22;4333;48.322;14.340;2023-10-09T14:29:51;18.20;99.90
8591;DHT22;4333;48.322;14.340;2023-10-09T14:32:22;18.30;99.90
8591;DHT22;4333;48.322;14.340;2023-10-09T14:34:57;18.30;96.90
8591;DHT22;4333;48.322;14.340;2023-10-09T14:37:38;18.30;99.30
8591;DHT22;4333;48.322;14.340;2023-10-09T14:40:06;18.30;95.90
8591;DHT22;4333;48.322;14.340;2023-10-09T14:42:39;18.30;94.10
8591;DHT22;4333;48.322;14.340;2023-10-09T14:45:10;18.40;93.40
8591;DHT22;4333;48.322;14.340;2023-10-09T14:47:41;18.40;92.20
8591;DHT22;4333;48.322;14.340;2023-10-09T14:50:07;18.40;93.50
8591;DHT22;4333;48.322;14.340;2023-10-09T14:52:39;18.40;91.90
8591;DHT22;4333;48.322;14.340;2023-10-09T14:55:06;18.40;92.30
8591;DHT22;4333;48.322;14.340;2023-10-09T14:57:32;18.40;95.80
8591;DHT22;4333;48.322;14.340;2023-10-09T15:00:06;18.30;95.20
8591;DHT22;4333;48.322;14.340;2023-10-09T15:02:41;18.40;96.60
8591;DHT22;4333;48.322;14.340;2023-10-09T15:05:07;18.30;97.60
8591;DHT22;4333;48.322;14.340;2023-10-09T15:07:37;18.30;95.50
8591;DHT22;4333;48.322;14.340;2023-10-09T15:10:06;18.30;96.50
8591;DHT22;4333;48.322;14.340;2023-10-09T15:12:37;18.20;97.70
8591;DHT22;4333;48.322;14.340;2023-10-09T15:15:08;18.20;99.20
8591;DHT22;4333;48.322;14.340;2023-10-09T15:17:42;18.10;99.40
8591;DHT22;4333;48.322;14.340;2023-10-09T15:20:14;18.10;99.90
8591;DHT22;4333;48.322;14.340;2023-10-09T15:22:45;18.00;99.90
8591;DHT22;4333;48.322;14.340;2023-10-09T15:25:11;18.00;99.90
8591;DHT22;4333;48.322;14.340;2023-10-09T15:27:43;18.00;99.90
8591;DHT22;4333;48.322;14.340;2023-10-09T15:30:11;18.00;99.90
8591;DHT22;4333;48.322;14.340;2023-10-09T15:32:43;18.00;99.90
8591;DHT22;4333;48.322;14.340;2023-10-09T15:35:09;18.00;99.90
8591;DHT22;4333;48.322;14.340;2023-10-09T15:37:38;18.10;99.90
8591;DHT22;4333;48.322;14.340;2023-10-09T15:40:06;18.10;99.90
8591;DHT22;4333;48.322;14.340;2023-10-09T15:42:42;18.00;99.90
8591;DHT22;4333;48.322;14.340;2023-10-09T15:45:15;18.00;99.90
8591;DHT22;4333;48.322;14.340;2023-10-09T15:47:41;17.90;99.90
8591;DHT22;4333;48.322;14.340;2023-10-09T15:50:08;17.90;99.90
8591;DHT22;4333;48.322;14.340;2023-10-09T15:52:36;17.90;99.90
8591;DHT22;4333;48.322;14.340;2023-10-09T15:55:04;17.90;99.90
8591;DHT22;4333;48.322;14.340;2023-10-09T15:57:39;17.90;99.90
8591;DHT22;4333;48.322;14.340;2023-10-09T16:00:06;17.80;99.90
8591;DHT22;4333;48.322;14.340;2023-10-09T16:02:40;17.80;99.90
8591;DHT22;4333;48.322;14.340;2023-10-09T16:05:06;17.80;99.90
8591;DHT22;4333;48.322;14.340;2023-10-09T16:07:35;17.80;99.90
8591;DHT22;4333;48.322;14.340;2023-10-09T16:10:03;17.80;99.90
8591;DHT22;4333;48.322;14.340;2023-10-09T16:12:31;17.80;99.90
8591;DHT22;4333;48.322;14.340;2023-10-09T16:14:59;17.80;99.90
8591;DHT22;4333;48.322;14.340;2023-10-09T16:17:26;17.80;99.90
8591;DHT22;4333;48.322;14.340;2023-10-09T16:19:54;17.80;99.90
8591;DHT22;4333;48.322;14.340;2023-10-09T16:22:22;17.70;99.90
8591;DHT22;4333;48.322;14.340;2023-10-09T16:24:50;17.80;99.90
8591;DHT22;4333;48.322;14.340;2023-10-09T16:27:17;17.70;99.90
8591;DHT22;4333;48.322;14.340;2023-10-09T16:29:51;17.70;99.90
8591;DHT22;4333;48.322;14.340;2023-10-09T16:32:18;17.70;99.90
8591;DHT22;4333;48.322;14.340;2023-10-09T16:34:52;17.70;99.90
8591;DHT22;4333;48.322;14.340;2023-10-09T16:37:20;17.70;99.90
8591;DHT22;4333;48.322;14.340;2023-10-09T16:39:51;17.60;99.90
8591;DHT22;4333;48.322;14.340;2023-10-09T16:42:22;17.60;99.90
8591;DHT22;4333;48.322;14.340;2023-10-09T16:44:52;17.70;99.90
8591;DHT22;4333;48.322;14.340;2023-10-09T16:47:24;17.70;99.90
8591;DHT22;4333;48.322;14.340;2023-10-09T16:49:49;17.70;99.90
8591;DHT22;4333;48.322;14.340;2023-10-09T16:52:17;17.70;99.90
8591;DHT22;4333;48.322;14.340;2023-10-09T16:54:43;17.60;99.90
8591;DHT22;4333;48.322;14.340;2023-10-09T16:57:12;17.70;99.90
8591;DHT22;4333;48.322;14.340;2023-10-09T16:59:38;17.70;99.90
8591;DHT22;4333;48.322;14.340;2023-10-09T17:02:04;17.70;99.90